Time;durP1;ratioP1;P1;durP2;ratioP2;P2;SDS_P1;SDS_P2;PMS_P1;PMS_P2;Temp;Humidity;BMP_temperature;BMP_pressure;BME280_temperature;BME280_humidity;BME280_pressure;Samples;Min_cycle;Max_cycle;Signal;HPM_P1;HPM_P2
2022/04/09 00:01:03;;;;;;;2.10;1.40;;;4.00;99.90;;;;;;7376489;19;20452;-66
2022/04/09 00:03:28;;;;;;;1.50;1.40;;;4.00;99.90;;;;;;7381149;19;20324;-68
2022/04/09 00:05:54;;;;;;;1.70;1.60;;;4.00;99.90;;;;;;7382512;19;20336;-66
2022/04/09 00:08:20;;;;;;;2.13;1.80;;;4.00;99.90;;;;;;7381799;19;20349;-66
2022/04/09 00:10:45;;;;;;;1.73;1.63;;;4.00;99.90;;;;;;7381064;19;21158;-66
2022/04/09 00:13:11;;;;;;;2.25;1.60;;;3.90;99.90;;;;;;7381535;19;20329;-66
2022/04/09 00:15:37;;;;;;;1.70;1.60;;;4.00;99.90;;;;;;7380129;19;20324;-66
2022/04/09 00:18:03;;;;;;;2.15;1.60;;;3.90;99.90;;;;;;7382388;19;20400;-66
2022/04/09 00:20:28;;;;;;;1.63;1.52;;;4.00;99.90;;;;;;7378808;19;20329;-66
2022/04/09 00:22:54;;;;;;;2.10;1.80;;;4.00;99.90;;;;;;7386146;19;20337;-66
2022/04/09 00:25:24;;;;;;;2.05;1.80;;;3.90;99.90;;;;;;7380796;19;21172;-66
2022/04/09 00:27:50;;;;;;;1.80;1.65;;;3.90;99.90;;;;;;7383208;19;20364;-66
2022/04/09 00:30:16;;;;;;;2.20;2.00;;;3.80;99.90;;;;;;7377683;19;20365;-66
2022/04/09 00:32:41;;;;;;;3.20;2.20;;;3.80;99.90;;;;;;7384060;19;20329;-67
2022/04/09 00:35:07;;;;;;;2.57;2.20;;;3.80;99.90;;;;;;7381140;19;20936;-66
2022/04/09 00:37:43;;;;;;;2.55;2.17;;;3.80;99.90;;;;;;7380741;19;20876;-67
2022/04/09 00:40:09;;;;;;;2.45;2.20;;;3.90;99.90;;;;;;7274809;19;2004832;-66
2022/04/09 00:42:35;;;;;;;2.25;2.05;;;3.80;99.90;;;;;;7379624;19;20336;-66
2022/04/09 00:45:01;;;;;;;2.30;2.10;;;3.90;99.90;;;;;;7377726;19;20321;-66
2022/04/09 00:47:27;;;;;;;2.47;2.28;;;3.80;99.90;;;;;;7382023;19;20301;-66
2022/04/09 00:49:52;;;;;;;3.20;2.20;;;3.80;99.90;;;;;;7380014;19;20393;-66
2022/04/09 00:52:18;;;;;;;2.30;2.10;;;3.80;99.90;;;;;;7379280;19;20336;-66
2022/04/09 00:54:44;;;;;;;3.53;2.17;;;3.80;99.90;;;;;;7379520;19;20367;-67
2022/04/09 00:57:10;;;;;;;2.80;2.20;;;3.80;99.90;;;;;;7375995;19;20324;-66
2022/04/09 00:59:36;;;;;;;2.50;2.30;;;3.80;99.90;;;;;;7379382;19;20349;-66
2022/04/09 01:02:03;;;;;;;2.72;2.53;;;3.80;99.90;;;;;;7373895;19;20332;-67
2022/04/09 01:04:28;;;;;;;4.65;2.65;;;3.80;99.90;;;;;;7380977;19;20365;-67
2022/04/09 01:06:57;;;;;;;2.40;2.20;;;3.80;99.90;;;;;;7380814;19;20968;-67
2022/04/09 01:09:22;;;;;;;2.85;2.42;;;3.80;99.90;;;;;;7380770;19;20328;-66
2022/04/09 01:11:48;;;;;;;2.50;2.28;;;3.80;99.90;;;;;;7384444;19;20333;-67
2022/04/09 01:14:14;;;;;;;3.30;2.40;;;3.80;99.90;;;;;;7383738;19;20318;-67
2022/04/09 01:16:40;;;;;;;3.17;2.40;;;3.70;99.90;;;;;;7378533;19;20321;-67
2022/04/09 01:19:05;;;;;;;2.90;2.53;;;3.70;99.90;;;;;;7378536;19;20374;-67
2022/04/09 01:21:35;;;;;;;3.33;2.40;;;3.70;99.90;;;;;;7375200;19;20337;-67
2022/04/09 01:24:04;;;;;;;3.00;2.30;;;3.70;99.90;;;;;;7380247;19;20350;-67
2022/04/09 01:26:30;;;;;;;3.10;2.40;;;3.80;99.90;;;;;;7384417;19;20345;-67
2022/04/09 01:28:56;;;;;;;2.30;2.10;;;3.80;99.90;;;;;;7382344;19;20796;-67
2022/04/09 01:31:21;;;;;;;3.00;2.17;;;3.70;99.90;;;;;;7373999;19;20353;-67
2022/04/09 01:33:48;;;;;;;2.40;2.20;;;3.70;99.90;;;;;;7380933;19;20357;-67
2022/04/09 01:36:14;;;;;;;3.63;2.37;;;3.80;99.90;;;;;;7380461;19;20321;-67
2022/04/09 01:38:40;;;;;;;2.20;1.95;;;3.80;99.90;;;;;;7378444;19;20404;-66
2022/04/09 01:41:06;;;;;;;2.42;2.22;;;3.80;99.90;;;;;;7376469;19;21115;-67
2022/04/09 01:43:54;;;;;;;2.28;1.92;;;3.80;99.90;;;;;;7276855;19;2004538;-67
2022/04/09 01:46:20;;;;;;;2.37;2.10;;;3.80;99.90;;;;;;7365641;19;20346;-67
2022/04/09 01:48:45;;;;;;;3.22;1.90;;;3.80;99.90;;;;;;7380322;19;21170;-66
2022/04/09 01:51:11;;;;;;;2.05;1.88;;;3.80;99.90;;;;;;7377965;19;20336;-67
2022/04/09 01:53:38;;;;;;;1.93;1.83;;;3.80;99.90;;;;;;7379586;19;20919;-67
2022/04/09 01:56:04;;;;;;;2.17;2.00;;;3.80;99.90;;;;;;7379071;19;20348;-66
2022/04/09 01:58:35;;;;;;;3.05;2.10;;;3.80;99.90;;;;;;7381024;19;20329;-67
2022/04/09 02:01:01;;;;;;;2.37;2.00;;;3.80;99.90;;;;;;7374604;19;20375;-67
2022/04/09 02:03:29;;;;;;;2.25;2.00;;;3.80;99.90;;;;;;7379265;19;20321;-67
2022/04/09 02:05:56;;;;;;;2.25;1.95;;;3.80;99.90;;;;;;7378098;19;21153;-67
2022/04/09 02:08:21;;;;;;;2.00;1.90;;;3.80;99.90;;;;;;7378159;19;20325;-67
2022/04/09 02:10:48;;;;;;;2.00;1.80;;;3.70;99.90;;;;;;7374620;19;20333;-67
2022/04/09 02:13:14;;;;;;;2.60;1.90;;;3.70;99.90;;;;;;7379278;19;20317;-67
2022/04/09 02:15:41;;;;;;;1.98;1.88;;;3.80;99.90;;;;;;7373733;19;20384;-67
2022/04/09 02:18:06;;;;;;;2.20;1.80;;;3.70;99.90;;;;;;7378477;19;20404;-66
2022/04/09 02:20:33;;;;;;;2.20;2.00;;;3.70;99.90;;;;;;7375685;19;20312;-66
2022/04/09 02:22:59;;;;;;;2.05;1.92;;;3.70;99.90;;;;;;7376089;19;20303;-67
2022/04/09 02:25:24;;;;;;;2.17;1.98;;;3.60;99.90;;;;;;7375593;19;20337;-67
2022/04/09 02:27:50;;;;;;;2.00;1.80;;;3.60;99.90;;;;;;7382975;19;20328;-66
2022/04/09 02:30:18;;;;;;;1.90;1.80;;;3.50;99.90;;;;;;7372474;19;20424;-67
2022/04/09 02:32:50;;;;;;;2.25;2.05;;;3.60;99.90;;;;;;7375559;19;20337;-67
2022/04/09 02:35:18;;;;;;;2.00;1.90;;;3.60;99.90;;;;;;7373848;19;20316;-67
2022/04/09 02:37:44;;;;;;;2.35;2.10;;;3.50;99.90;;;;;;7378631;19;20313;-67
2022/04/09 02:40:11;;;;;;;2.53;1.85;;;3.50;99.90;;;;;;7374425;19;20358;-67
2022/04/09 02:42:38;;;;;;;2.85;2.15;;;3.50;99.90;;;;;;7375169;19;20301;-67
2022/04/09 02:45:04;;;;;;;2.40;2.20;;;3.40;99.90;;;;;;7375155;19;20326;-67
2022/04/09 02:47:32;;;;;;;2.15;2.03;;;3.40;99.90;;;;;;7376185;19;20739;-67
2022/04/09 02:50:01;;;;;;;2.80;2.30;;;3.40;99.90;;;;;;7377565;19;20706;-66
2022/04/09 02:52:31;;;;;;;4.20;2.40;;;3.40;99.90;;;;;;7374356;19;20312;-67
2022/04/09 02:54:57;;;;;;;2.40;2.20;;;3.30;99.90;;;;;;7380833;19;20329;-66
2022/04/09 02:57:23;;;;;;;2.67;2.20;;;3.30;99.90;;;;;;7377034;19;20797;-67
2022/04/09 02:59:49;;;;;;;3.05;2.10;;;3.30;99.90;;;;;;7377698;19;20361;-67
2022/04/09 03:02:15;;;;;;;2.40;2.20;;;3.30;99.90;;;;;;7376204;19;20332;-67
2022/04/09 03:04:40;;;;;;;2.70;2.50;;;3.30;99.90;;;;;;7373742;19;20386;-66
2022/04/09 03:07:06;;;;;;;2.33;2.13;;;3.30;99.90;;;;;;7376600;19;20379;-67
2022/04/09 03:09:32;;;;;;;2.43;2.13;;;3.30;99.90;;;;;;7367665;19;20973;-66
2022/04/09 03:11:57;;;;;;;2.60;2.40;;;3.20;99.90;;;;;;7374571;19;20371;-67
2022/04/09 03:14:24;;;;;;;2.47;1.98;;;3.20;99.90;;;;;;7377025;19;20364;-67
2022/04/09 03:16:49;;;;;;;4.43;2.22;;;3.20;99.90;;;;;;7371523;19;20372;-67
2022/04/09 03:19:16;;;;;;;2.97;2.40;;;3.30;99.90;;;;;;7378894;19;20351;-67
2022/04/09 03:21:42;;;;;;;2.87;2.37;;;3.20;99.90;;;;;;7370738;19;21226;-67
2022/04/09 03:24:08;;;;;;;2.40;2.20;;;3.20;99.90;;;;;;7375343;19;20331;-67
2022/04/09 03:26:34;;;;;;;2.45;2.25;;;3.20;99.90;;;;;;7373868;19;20333;-67
2022/04/09 03:29:00;;;;;;;3.05;2.45;;;3.10;99.90;;;;;;7376240;19;20351;-67
2022/04/09 03:31:25;;;;;;;2.30;2.10;;;3.10;99.90;;;;;;7374684;19;20328;-67
2022/04/09 03:33:52;;;;;;;2.70;2.50;;;3.10;99.90;;;;;;7378400;19;21681;-67
2022/04/09 03:36:20;;;;;;;3.53;2.20;;;3.10;99.90;;;;;;7373021;19;20356;-67
2022/04/09 03:38:46;;;;;;;2.83;2.30;;;3.10;99.90;;;;;;7376677;19;20360;-67
2022/04/09 03:41:12;;;;;;;2.35;2.15;;;3.10;99.90;;;;;;7375091;19;20788;-67
2022/04/09 03:43:51;;;;;;;2.50;2.30;;;3.00;99.90;;;;;;7376311;19;20307;-66
2022/04/09 03:46:18;;;;;;;2.90;2.20;;;3.00;99.90;;;;;;7374205;19;20339;-67
2022/04/09 03:48:45;;;;;;;2.13;1.92;;;3.00;99.90;;;;;;7375378;19;20395;-67
2022/04/09 03:51:12;;;;;;;2.47;2.28;;;3.00;99.90;;;;;;7374046;19;20316;-66
2022/04/09 03:53:40;;;;;;;2.43;1.90;;;3.00;99.90;;;;;;7376062;19;20309;-67
2022/04/09 03:56:06;;;;;;;2.88;2.30;;;2.90;99.90;;;;;;7372699;19;20327;-67
2022/04/09 03:58:37;;;;;;;2.40;2.20;;;2.90;99.90;;;;;;7376881;19;20357;-66
2022/04/09 04:01:03;;;;;;;2.38;2.17;;;2.90;99.90;;;;;;7372938;19;20868;-66
2022/04/09 04:03:29;;;;;;;2.60;2.40;;;2.90;99.90;;;;;;7374453;19;20308;-67
2022/04/09 04:05:56;;;;;;;2.60;2.40;;;2.80;99.90;;;;;;7373099;19;20317;-67
2022/04/09 04:08:22;;;;;;;2.20;2.00;;;2.90;99.90;;;;;;7375362;19;20422;-67
2022/04/09 04:10:49;;;;;;;2.60;2.40;;;2.80;99.90;;;;;;7369860;19;20679;-66
2022/04/09 04:13:27;;;;;;;6.73;4.50;;;2.80;99.90;;;;;;7375196;19;20321;-66
2022/04/09 04:15:56;;;;;;;2.83;2.00;;;2.80;99.90;;;;;;7373361;19;20328;-66
2022/04/09 04:18:22;;;;;;;4.22;1.98;;;2.80;99.90;;;;;;7375521;19;20320;-67
2022/04/09 04:20:52;;;;;;;2.30;2.10;;;2.80;99.90;;;;;;7372261;19;20895;-67
2022/04/09 04:23:17;;;;;;;2.17;1.97;;;2.70;99.90;;;;;;7374216;19;20321;-67
2022/04/09 04:25:43;;;;;;;2.47;2.20;;;2.70;99.90;;;;;;7371448;19;20393;-67
2022/04/09 04:28:09;;;;;;;3.20;2.28;;;2.70;99.90;;;;;;7374263;19;20327;-67
2022/04/09 04:30:35;;;;;;;4.72;2.58;;;2.80;99.90;;;;;;7371239;19;20334;-66
2022/04/09 04:33:02;;;;;;;6.75;4.72;;;2.70;99.90;;;;;;7379332;19;20349;-66
2022/04/09 04:35:35;;;;;;;3.55;2.70;;;2.70;99.90;;;;;;7382447;19;20320;-66
2022/04/09 04:38:01;;;;;;;4.40;3.85;;;2.70;99.90;;;;;;7384328;19;20448;-67
2022/04/09 04:40:30;;;;;;;3.85;2.10;;;2.80;99.90;;;;;;7384626;19;20362;-66
2022/04/09 04:43:00;;;;;;;2.15;1.98;;;2.80;99.90;;;;;;7382967;19;20980;-67
2022/04/09 04:45:27;;;;;;;4.32;2.30;;;2.80;99.90;;;;;;7377366;19;20331;-67
2022/04/09 04:47:55;;;;;;;3.30;2.17;;;2.80;99.90;;;;;;7383797;19;20309;-67
2022/04/09 04:50:24;;;;;;;4.35;2.40;;;2.80;99.90;;;;;;7374484;19;20352;-67
2022/04/09 04:52:51;;;;;;;2.90;2.23;;;2.80;99.90;;;;;;7372209;19;20332;-66
2022/04/09 04:55:18;;;;;;;3.78;2.50;;;2.90;99.90;;;;;;7381994;19;21166;-67
2022/04/09 04:57:50;;;;;;;3.25;2.20;;;2.90;99.90;;;;;;7361400;19;20347;-66
2022/04/09 05:00:24;;;;;;;3.47;2.58;;;2.90;99.90;;;;;;7377883;19;20352;-67
2022/04/09 05:02:54;;;;;;;2.67;2.38;;;3.00;99.90;;;;;;7380493;19;20341;-66
2022/04/09 05:05:20;;;;;;;3.20;2.65;;;2.90;99.90;;;;;;7377598;19;20347;-67
2022/04/09 05:07:50;;;;;;;3.67;2.40;;;2.90;99.90;;;;;;7377060;19;21022;-67
2022/04/09 05:10:22;;;;;;;3.35;2.20;;;3.00;99.90;;;;;;7377619;19;21188;-67
2022/04/09 05:12:49;;;;;;;2.57;2.13;;;3.00;99.90;;;;;;7373291;19;20363;-68
2022/04/09 05:15:16;;;;;;;4.50;2.30;;;3.00;99.90;;;;;;7378438;19;20337;-67
2022/04/09 05:17:44;;;;;;;3.03;2.35;;;3.10;99.90;;;;;;7380296;19;20336;-67
2022/04/09 05:20:12;;;;;;;2.42;2.05;;;3.00;99.90;;;;;;7375987;19;20339;-66
2022/04/09 05:22:41;;;;;;;2.65;2.00;;;3.00;99.90;;;;;;7380252;19;20963;-67
2022/04/09 05:25:09;;;;;;;3.30;2.40;;;3.00;99.90;;;;;;7379675;19;20840;-67
2022/04/09 05:27:35;;;;;;;2.53;2.20;;;3.00;99.90;;;;;;7379476;19;20723;-67
2022/04/09 05:30:07;;;;;;;13.57;5.60;;;3.00;99.90;;;;;;7375136;19;21136;-67
2022/04/09 05:32:39;;;;;;;3.65;3.20;;;3.00;99.90;;;;;;7380514;19;20333;-69
2022/04/09 05:35:07;;;;;;;3.60;2.38;;;3.10;99.90;;;;;;7377061;19;20333;-67
2022/04/09 05:37:33;;;;;;;2.70;2.30;;;3.00;99.90;;;;;;7380167;19;20337;-67
2022/04/09 05:39:59;;;;;;;5.93;2.50;;;3.00;99.90;;;;;;7380353;19;20675;-67
2022/04/09 05:42:25;;;;;;;2.50;2.30;;;3.00;99.90;;;;;;7378408;19;21398;-67
2022/04/09 05:44:55;;;;;;;4.28;2.35;;;3.00;99.90;;;;;;7376404;19;20353;-67
2022/04/09 05:47:24;;;;;;;3.70;2.50;;;3.00;99.90;;;;;;7379283;19;20724;-68
2022/04/09 05:49:50;;;;;;;2.60;2.15;;;3.10;99.90;;;;;;7378497;19;20317;-67
2022/04/09 05:52:16;;;;;;;2.40;2.20;;;3.10;99.90;;;;;;7378090;19;20885;-67
2022/04/09 05:54:43;;;;;;;2.80;2.20;;;3.20;99.90;;;;;;7377581;19;20337;-67
2022/04/09 05:57:09;;;;;;;4.07;2.60;;;3.20;99.90;;;;;;7375614;19;24805;-67
2022/04/09 05:59:39;;;;;;;2.40;2.20;;;3.30;99.90;;;;;;7379717;19;20821;-67
2022/04/09 06:02:06;;;;;;;5.97;2.50;;;3.50;99.90;;;;;;7372760;19;20360;-68
2022/04/09 06:04:32;;;;;;;3.63;2.43;;;3.60;99.90;;;;;;7379295;19;20841;-67
2022/04/09 06:07:01;;;;;;;3.53;2.78;;;3.60;99.90;;;;;;7376781;19;20333;-67
2022/04/09 06:09:27;;;;;;;4.68;2.97;;;3.70;99.90;;;;;;7379811;19;21497;-68
2022/04/09 06:12:00;;;;;;;5.03;3.10;;;3.80;99.90;;;;;;7376841;19;20971;-68
2022/04/09 06:14:33;;;;;;;4.10;2.60;;;3.90;99.90;;;;;;7277429;19;2004820;-67
2022/04/09 06:17:02;;;;;;;4.83;2.70;;;4.00;99.90;;;;;;7376988;19;20435;-67
2022/04/09 06:19:29;;;;;;;3.27;2.70;;;4.00;99.90;;;;;;7379517;19;20324;-67
2022/04/09 06:21:56;;;;;;;3.17;2.45;;;4.10;99.90;;;;;;7374072;19;20357;-67
2022/04/09 06:24:22;;;;;;;5.20;2.35;;;4.20;99.90;;;;;;7377977;19;20830;-67
2022/04/09 06:26:48;;;;;;;4.83;2.53;;;4.30;99.90;;;;;;7381612;19;20346;-68
2022/04/09 06:29:14;;;;;;;7.20;3.07;;;4.50;99.90;;;;;;7380862;19;20976;-68
2022/04/09 06:31:47;;;;;;;2.60;2.03;;;4.40;99.90;;;;;;7374959;19;20345;-68
2022/04/09 06:34:14;;;;;;;3.63;2.63;;;4.50;99.90;;;;;;7379674;19;20345;-67
2022/04/09 06:36:40;;;;;;;2.47;2.25;;;4.70;99.90;;;;;;7369661;19;20368;-67
2022/04/09 06:39:07;;;;;;;2.80;2.20;;;4.70;99.90;;;;;;7368474;19;20403;-67
2022/04/09 06:41:36;;;;;;;2.45;2.10;;;4.70;99.90;;;;;;7384038;19;20324;-68
2022/04/09 06:44:04;;;;;;;2.88;2.30;;;4.70;99.90;;;;;;7377889;19;20344;-67
2022/04/09 06:46:33;;;;;;;3.20;2.38;;;4.80;99.90;;;;;;7371591;19;20300;-68
2022/04/09 06:49:12;;;;;;;4.35;2.10;;;4.70;99.90;;;;;;7273408;19;2004927;-67
2022/04/09 06:51:50;;;;;;;2.42;1.95;;;4.80;99.90;;;;;;7268799;19;2004738;-67
2022/04/09 06:54:39;;;;;;;2.83;2.07;;;4.90;99.90;;;;;;7269605;19;2004513;-67
2022/04/09 06:57:06;;;;;;;2.20;1.80;;;4.90;99.90;;;;;;7368857;19;20981;-67
2022/04/09 06:59:38;;;;;;;4.75;2.47;;;5.00;99.90;;;;;;7373810;19;20312;-68
2022/04/09 07:02:04;;;;;;;3.67;1.80;;;5.00;99.90;;;;;;7363013;19;20367;-68
2022/04/09 07:04:29;;;;;;;3.80;1.85;;;4.90;99.90;;;;;;7360573;19;20344;-67
2022/04/09 07:06:55;;;;;;;2.43;1.70;;;4.90;99.90;;;;;;7375711;19;20340;-68
2022/04/09 07:09:21;;;;;;;3.70;2.08;;;4.90;99.90;;;;;;7377269;19;20308;-68
2022/04/09 07:11:46;;;;;;;2.40;1.77;;;5.00;99.90;;;;;;7375184;19;20320;-67
2022/04/09 07:14:12;;;;;;;4.20;2.08;;;5.10;99.90;;;;;;7379856;19;20321;-68
2022/04/09 07:16:39;;;;;;;6.07;1.88;;;5.20;99.90;;;;;;7375790;19;20324;-69
2022/04/09 07:19:07;;;;;;;2.25;1.75;;;5.20;99.90;;;;;;7380499;19;21184;-68
2022/04/09 07:21:33;;;;;;;3.60;1.77;;;5.20;99.90;;;;;;7374721;19;20344;-68
2022/04/09 07:23:58;;;;;;;2.03;1.60;;;5.20;99.90;;;;;;7378109;19;21054;-68
2022/04/09 07:26:24;;;;;;;2.53;1.67;;;5.40;99.90;;;;;;7377935;19;20448;-68
2022/04/09 07:28:49;;;;;;;1.50;1.40;;;5.50;99.90;;;;;;7376535;19;20358;-68
2022/04/09 07:31:15;;;;;;;2.97;1.90;;;5.60;99.90;;;;;;7376877;19;20325;-67
2022/04/09 07:33:41;;;;;;;3.30;1.60;;;5.80;99.90;;;;;;7378060;19;20352;-68
2022/04/09 07:36:06;;;;;;;2.97;1.77;;;5.90;99.90;;;;;;7373138;19;20849;-69
2022/04/09 07:38:32;;;;;;;2.53;1.77;;;5.60;99.90;;;;;;7378511;19;20300;-68
2022/04/09 07:40:58;;;;;;;2.97;1.95;;;5.60;99.90;;;;;;7374854;19;20944;-69
2022/04/09 07:43:23;;;;;;;3.07;2.00;;;5.60;99.90;;;;;;7379305;19;20305;-69
2022/04/09 07:45:49;;;;;;;4.75;1.88;;;5.70;99.90;;;;;;7377443;19;21806;-69
2022/04/09 07:48:15;;;;;;;2.83;1.70;;;5.80;99.90;;;;;;7377767;19;20312;-69
2022/04/09 07:50:40;;;;;;;3.43;1.93;;;5.90;99.90;;;;;;7374495;19;20348;-69
2022/04/09 07:53:09;;;;;;;3.70;1.88;;;5.80;99.90;;;;;;7378007;19;20881;-69
2022/04/09 07:55:34;;;;;;;4.68;1.92;;;6.00;99.90;;;;;;7374176;19;20317;-69
2022/04/09 07:58:01;;;;;;;3.00;1.60;;;5.90;99.90;;;;;;7377215;19;20304;-69
2022/04/09 08:00:27;;;;;;;2.22;1.63;;;6.00;99.90;;;;;;7374122;19;20324;-69
2022/04/09 08:02:52;;;;;;;1.95;1.52;;;6.10;99.90;;;;;;7376565;19;20308;-69
2022/04/09 08:05:18;;;;;;;4.47;1.87;;;6.10;99.90;;;;;;7374497;19;20332;-69
2022/04/09 08:07:44;;;;;;;3.80;1.80;;;6.20;99.90;;;;;;7382126;19;20362;-68
2022/04/09 08:10:11;;;;;;;2.08;1.65;;;6.30;99.90;;;;;;7384040;19;20295;-68
2022/04/09 08:12:37;;;;;;;3.88;2.13;;;6.20;99.90;;;;;;7387147;19;20316;-69
2022/04/09 08:15:04;;;;;;;2.25;1.83;;;6.20;99.90;;;;;;7361058;19;20312;-69
2022/04/09 08:17:29;;;;;;;2.60;2.10;;;6.10;99.90;;;;;;7383902;19;20891;-69
2022/04/09 08:19:56;;;;;;;2.63;1.83;;;6.10;99.90;;;;;;7382959;19;20413;-68
2022/04/09 08:22:22;;;;;;;3.45;1.90;;;6.30;99.90;;;;;;7380964;19;20604;-69
2022/04/09 08:24:48;;;;;;;3.87;2.03;;;6.40;99.90;;;;;;7382074;19;21098;-69
2022/04/09 08:27:13;;;;;;;3.90;2.00;;;6.20;99.90;;;;;;7365472;19;20337;-69
2022/04/09 08:29:39;;;;;;;2.95;1.95;;;6.10;99.90;;;;;;7383527;19;20324;-69
2022/04/09 08:32:05;;;;;;;2.97;1.73;;;6.20;99.90;;;;;;7383439;19;20288;-69
2022/04/09 08:34:35;;;;;;;2.88;1.88;;;6.10;99.90;;;;;;7380683;19;20296;-69
2022/04/09 08:37:01;;;;;;;3.03;1.92;;;6.20;99.90;;;;;;7379887;19;20333;-69
2022/04/09 08:39:27;;;;;;;3.20;2.28;;;6.60;99.90;;;;;;7382465;19;20334;-68
2022/04/09 08:41:53;;;;;;;3.55;2.28;;;6.90;99.90;;;;;;7379086;19;20317;-69
2022/04/09 08:44:19;;;;;;;3.20;1.83;;;6.90;99.90;;;;;;7383745;19;20320;-68
2022/04/09 08:46:48;;;;;;;2.20;1.70;;;6.80;99.90;;;;;;7386023;19;20301;-69
2022/04/09 08:49:13;;;;;;;3.38;1.83;;;6.90;99.90;;;;;;7384567;19;20383;-69
2022/04/09 08:51:39;;;;;;;3.92;1.88;;;7.00;99.90;;;;;;7380173;19;20419;-69
2022/04/09 08:54:05;;;;;;;2.50;1.57;;;7.20;99.90;;;;;;7382806;19;20388;-68
2022/04/09 08:56:33;;;;;;;3.30;1.70;;;7.20;99.90;;;;;;7377990;19;20398;-69
2022/04/09 08:58:59;;;;;;;2.10;1.60;;;7.40;99.90;;;;;;7382172;19;20317;-68
2022/04/09 09:01:25;;;;;;;2.17;1.80;;;7.60;99.90;;;;;;7381161;19;20313;-69
2022/04/09 09:03:51;;;;;;;2.67;1.73;;;7.40;99.90;;;;;;7384366;19;20324;-69
2022/04/09 09:06:30;;;;;;;3.70;2.05;;;7.00;99.90;;;;;;7379247;19;20305;-69
2022/04/09 09:08:56;;;;;;;2.30;1.90;;;6.90;99.90;;;;;;7279910;19;2004883;-69
2022/04/09 09:11:22;;;;;;;2.35;1.75;;;6.50;99.90;;;;;;7377186;19;20335;-70
2022/04/09 09:13:50;;;;;;;3.83;1.75;;;6.20;99.90;;;;;;7381724;19;20319;-70
2022/04/09 09:16:27;;;;;;;2.00;1.77;;;5.80;99.90;;;;;;7380873;19;20647;-69
2022/04/09 09:18:59;;;;;;;3.58;1.85;;;5.90;99.90;;;;;;7379472;19;20714;-68
2022/04/09 09:21:27;;;;;;;3.43;2.00;;;6.10;99.90;;;;;;7379899;19;20337;-68
2022/04/09 09:24:14;;;;;;;4.72;2.03;;;6.40;99.90;;;;;;7382068;19;20909;-69
2022/04/09 09:26:40;;;;;;;2.90;2.05;;;6.80;99.90;;;;;;7380207;19;20356;-69
2022/04/09 09:29:06;;;;;;;3.05;2.05;;;7.00;99.90;;;;;;7381808;19;20651;-68
2022/04/09 09:31:52;;;;;;;3.65;2.20;;;7.30;99.90;;;;;;7379743;19;20324;-68
2022/04/09 09:34:21;;;;;;;2.20;2.00;;;7.50;99.90;;;;;;7279791;19;2004461;-68
2022/04/09 09:36:48;;;;;;;3.67;2.38;;;7.40;99.90;;;;;;7376493;19;20303;-69
2022/04/09 09:39:19;;;;;;;5.22;3.15;;;7.30;99.90;;;;;;7381995;19;20361;-68
2022/04/09 09:41:52;;;;;;;2.35;1.90;;;7.30;99.90;;;;;;7377860;19;20316;-68
2022/04/09 09:44:19;;;;;;;2.15;1.95;;;7.20;99.90;;;;;;7381301;19;20329;-68
2022/04/09 09:46:46;;;;;;;2.20;1.80;;;7.50;99.90;;;;;;7379428;19;20320;-68
2022/04/09 09:49:12;;;;;;;2.08;1.80;;;7.70;99.90;;;;;;7385695;19;20348;-68
2022/04/09 09:51:38;;;;;;;3.50;1.70;;;7.90;99.90;;;;;;7379890;19;20300;-68
2022/04/09 09:54:05;;;;;;;2.83;1.90;;;7.80;99.90;;;;;;7380005;19;20342;-68
2022/04/09 09:56:39;;;;;;;2.60;1.70;;;8.00;99.90;;;;;;7380786;19;20312;-69
2022/04/09 09:59:10;;;;;;;1.90;1.60;;;8.20;99.90;;;;;;7383575;19;20312;-69
2022/04/09 10:01:42;;;;;;;2.22;1.55;;;8.50;99.90;;;;;;7377410;19;20334;-69
2022/04/09 10:04:08;;;;;;;2.30;1.70;;;8.60;99.90;;;;;;7381424;19;21114;-68
2022/04/09 10:06:35;;;;;;;2.97;1.70;;;8.70;99.90;;;;;;7375281;19;20344;-69
2022/04/09 10:09:02;;;;;;;1.50;1.30;;;8.10;99.90;;;;;;7379943;19;20313;-69
2022/04/09 10:11:28;;;;;;;1.40;1.30;;;7.40;99.90;;;;;;7375177;19;20321;-68
2022/04/09 10:13:57;;;;;;;1.40;1.27;;;7.00;99.90;;;;;;7378347;19;20379;-68
2022/04/09 10:16:23;;;;;;;2.35;1.20;;;7.20;99.90;;;;;;7376046;19;20324;-69
2022/04/09 10:18:49;;;;;;;1.17;1.10;;;6.90;99.90;;;;;;7380948;19;20321;-68
2022/04/09 10:21:15;;;;;;;1.20;1.10;;;7.10;99.90;;;;;;7376554;19;20865;-69
2022/04/09 10:23:41;;;;;;;3.00;1.67;;;7.30;99.90;;;;;;7379811;19;20340;-68
2022/04/09 10:26:07;;;;;;;1.40;1.30;;;7.50;99.90;;;;;;7377334;19;20327;-68
2022/04/09 10:28:38;;;;;;;3.78;1.70;;;7.50;99.90;;;;;;7380364;19;20332;-69
2022/04/09 10:31:27;;;;;;;2.53;1.70;;;7.90;99.90;;;;;;7375336;19;20315;-68
2022/04/09 10:33:56;;;;;;;2.10;1.70;;;8.50;99.90;;;;;;7380587;19;20335;-69
2022/04/09 10:36:40;;;;;;;2.83;1.70;;;8.60;99.90;;;;;;7372829;19;20309;-69
2022/04/09 10:39:39;;;;;;;2.42;1.90;;;9.00;99.90;;;;;;7380333;19;20883;-68
2022/04/09 10:42:08;;;;;;;2.08;1.88;;;9.10;99.90;;;;;;7274953;19;2004435;-69
2022/04/09 10:44:34;;;;;;;2.90;1.87;;;9.30;99.90;;;;;;7377617;19;20642;-69
2022/04/09 10:47:01;;;;;;;2.00;1.80;;;9.20;99.90;;;;;;7377568;19;20353;-69
2022/04/09 10:49:28;;;;;;;2.55;1.80;;;9.70;99.90;;;;;;7378900;19;20324;-69
2022/04/09 10:52:01;;;;;;;3.35;2.10;;;10.00;99.90;;;;;;7380515;19;20325;-69
2022/04/09 10:54:27;;;;;;;3.00;1.75;;;9.90;99.90;;;;;;7276357;19;2004369;-69
2022/04/09 10:56:53;;;;;;;1.70;1.60;;;9.70;99.90;;;;;;7374448;19;20334;-69
2022/04/09 10:59:21;;;;;;;2.80;1.70;;;9.20;99.90;;;;;;7377610;19;20322;-70
2022/04/09 11:01:46;;;;;;;2.13;1.50;;;9.10;99.90;;;;;;7377658;19;20307;-69
2022/04/09 11:04:36;;;;;;;1.67;1.58;;;8.70;99.90;;;;;;7380040;19;20321;-69
2022/04/09 11:07:18;;;;;;;2.88;1.60;;;8.50;99.90;;;;;;7276678;19;2025668;-69
2022/04/09 11:09:48;;;;;;;1.92;1.33;;;8.40;99.90;;;;;;7276069;19;2004541;-69
2022/04/09 11:12:14;;;;;;;2.20;1.40;;;8.60;99.90;;;;;;7376471;19;20340;-69
2022/04/09 11:14:56;;;;;;;1.38;1.30;;;8.80;99.90;;;;;;7374846;19;20308;-68
2022/04/09 11:17:32;;;;;;;1.55;1.45;;;9.00;99.90;;;;;;7373960;19;21244;-69
2022/04/09 11:20:15;;;;;;;2.58;1.40;;;9.10;99.90;;;;;;7375096;19;20424;-68
2022/04/09 11:22:47;;;;;;;1.80;1.58;;;8.90;99.90;;;;;;7373159;19;20862;-69
2022/04/09 11:25:20;;;;;;;2.17;1.38;;;9.10;99.90;;;;;;7374383;19;20372;-69
2022/04/09 11:27:45;;;;;;;1.20;1.10;;;8.80;99.90;;;;;;7377495;19;20336;-69
2022/04/09 11:30:13;;;;;;;1.93;1.47;;;8.90;99.90;;;;;;7371323;19;21032;-68
2022/04/09 11:32:39;;;;;;;1.77;1.20;;;9.10;99.90;;;;;;7370715;19;20317;-69
2022/04/09 11:35:10;;;;;;;2.22;1.55;;;9.30;99.90;;;;;;7374047;19;20345;-69
2022/04/09 11:37:43;;;;;;;1.70;1.50;;;9.00;99.90;;;;;;7359558;19;20300;-69
2022/04/09 11:40:10;;;;;;;1.75;1.55;;;9.30;99.90;;;;;;7381940;19;20311;-69
2022/04/09 11:42:47;;;;;;;1.20;1.20;;;9.50;99.90;;;;;;7373737;19;20342;-69
2022/04/09 11:45:23;;;;;;;1.45;1.35;;;10.20;99.90;;;;;;7371968;19;20379;-69
2022/04/09 11:47:49;;;;;;;2.42;1.48;;;11.00;99.90;;;;;;7375846;19;20332;-68
2022/04/09 11:50:15;;;;;;;2.58;1.48;;;11.50;99.90;;;;;;7373376;19;20320;-69
2022/04/09 11:52:41;;;;;;;2.42;1.60;;;11.80;99.90;;;;;;7377960;19;20320;-68
2022/04/09 11:55:11;;;;;;;2.83;2.42;;;11.60;99.40;;;;;;7373858;19;20337;-69
2022/04/09 11:57:38;;;;;;;1.58;1.40;;;11.10;98.80;;;;;;7374127;19;20328;-69
2022/04/09 12:00:04;;;;;;;2.15;1.40;;;11.10;98.20;;;;;;7372851;19;20349;-68
2022/04/09 12:02:37;;;;;;;2.03;1.50;;;11.20;97.60;;;;;;7369585;19;20430;-68
2022/04/09 12:05:04;;;;;;;1.67;1.23;;;11.00;97.40;;;;;;7369287;19;20967;-68
2022/04/09 12:07:30;;;;;;;1.90;1.25;;;10.40;97.40;;;;;;7374240;19;20342;-69
2022/04/09 12:09:56;;;;;;;3.93;1.40;;;10.50;98.20;;;;;;7373445;19;20344;-69
2022/04/09 12:12:23;;;;;;;2.90;1.42;;;11.00;97.30;;;;;;7370852;19;20317;-69
2022/04/09 12:14:58;;;;;;;2.03;1.45;;;11.20;96.50;;;;;;7373472;19;20719;-69
2022/04/09 12:17:33;;;;;;;1.70;1.30;;;11.20;96.10;;;;;;7248156;19;2004300;-70
2022/04/09 12:19:59;;;;;;;1.70;1.33;;;11.00;98.10;;;;;;7270143;19;2004398;-68
2022/04/09 12:22:25;;;;;;;1.30;1.20;;;10.90;96.80;;;;;;7372723;19;20354;-69
2022/04/09 12:24:54;;;;;;;2.50;1.53;;;10.40;94.80;;;;;;7373132;19;20344;-70
2022/04/09 12:27:21;;;;;;;1.83;1.60;;;10.30;96.50;;;;;;7373670;19;20308;-69
2022/04/09 12:29:54;;;;;;;1.60;1.50;;;9.90;96.70;;;;;;7374800;19;20352;-68
2022/04/09 12:32:23;;;;;;;1.92;1.40;;;10.20;96.30;;;;;;7370264;19;20365;-69
2022/04/09 12:35:04;;;;;;;2.70;1.40;;;10.90;97.90;;;;;;7371442;19;20336;-69
2022/04/09 12:37:29;;;;;;;3.37;1.60;;;11.40;96.00;;;;;;7269077;19;2004305;-69
2022/04/09 12:40:15;;;;;;;1.40;1.30;;;11.70;95.60;;;;;;7373258;19;20333;-69
2022/04/09 12:42:40;;;;;;;1.50;1.40;;;11.70;94.40;;;;;;7270781;19;2004695;-70
2022/04/09 12:45:16;;;;;;;1.92;1.08;;;11.20;93.40;;;;;;7371463;19;20363;-69
2022/04/09 12:47:52;;;;;;;3.97;1.50;;;11.00;93.30;;;;;;7373083;19;20320;-69
2022/04/09 12:50:22;;;;;;;2.55;1.35;;;10.70;95.10;;;;;;7368696;19;20344;-70
2022/04/09 12:52:47;;;;;;;2.70;1.40;;;10.60;95.70;;;;;;7377123;19;20333;-69
2022/04/09 12:55:17;;;;;;;1.87;1.30;;;10.70;95.60;;;;;;7377060;19;20353;-69
2022/04/09 12:57:43;;;;;;;2.42;1.48;;;10.50;94.40;;;;;;7381721;19;21456;-70
2022/04/09 13:00:09;;;;;;;1.73;1.30;;;10.40;95.50;;;;;;7375619;19;20447;-70